Norrland — C4KF2 — position and weather

sailwx.info

Track history (hours):
 
Tides and Currents Weather Stations Pressure Air Temp Water Temp Dewpoint Dewpoint Depression Visibility Wind Speed Wind Dir Waves Ship Positions

Norrland

Last reported at 2016-Jun-23 14:25 UTC. Time now 2016-Jun-30 10:37 UTC.
Position N 55°47' E 015°54'.

Length 118 m; draft 4.2 m.

Type: Cargo ship. MMSI: 212521000.

Date/timePositionNaut miles runAvg speedWind from/ knotsBaromVisibWave heightAir tempDewpointWater temp
2016-Jun-23 14:25N 55°47' E 015°54'1011.4
2016-Jun-23 13:33N 55°42' E 015°39'1211.6
2016-Jun-23 12:33N 55°37' E 015°21'1211.8
2016-Jun-23 11:33N 55°31' E 015°03'1211.7
2016-Jun-23 10:33N 55°25' E 014°45'1111.5
2016-Jun-23 09:33N 55°17' E 014°31'1211.5
2016-Jun-23 08:33N 55°08' E 014°18'1111.3
2016-Jun-23 07:33N 55°01' E 014°03'2311.5
2016-Jun-23 05:33N 54°53' E 013°25'1211.8
2016-Jun-23 04:33N 54°49' E 013°06'1211.6
2016-Jun-23 03:33N 54°45' E 012°47'1212.0
2016-Jun-23 02:33N 54°39' E 012°29'1211.8
2016-Jun-23 01:33N 54°30' E 012°16'1010.5
2016-Jun-23 00:33N 54°24' E 012°01'1211.8
2016-Jun-22 23:33N 54°26' E 011°41'1211.8
2016-Jun-22 22:33N 54°31' E 011°23'1111.3
2016-Jun-22 21:33N 54°35' E 011°05'1212.1
2016-Jun-22 20:33N 54°34' E 010°44'1212.0
2016-Jun-22 19:33N 54°31' E 010°24'1010.3
2016-Jun-22 18:34N 54°23' E 010°12'2 2.5
2016-Jun-22 17:33N 54°22' E 010°08'6 5.6
2016-Jun-22 16:33N 54°21' E 009°59'6 6.1
2016-Jun-22 15:33N 54°22' E 009°49'7 6.8
2016-Jun-22 14:33N 54°17' E 009°40'4 4.1
2016-Jun-22 13:33N 54°14' E 009°36'14 6.7
2016-Jun-22 11:26N 54°04' E 009°19'7 8.0
2016-Jun-22 10:33N 53°57' E 009°15'5 5.2
2016-Jun-22 09:33N 53°54' E 009°09'4 4.1
2016-Jun-22 08:33N 53°52' E 009°02'8 8.1
2016-Jun-22 07:33N 53°50' E 008°49'7 7.4
2016-Jun-22 06:33N 53°55' E 008°40'8 8.2
2016-Jun-22 05:34N 53°59' E 008°27'10 9.8
2016-Jun-22 04:32N 53°60' E 008°10'1110.9
2016-Jun-22 03:33N 53°57' E 007°53'1111.0
2016-Jun-22 02:33N 53°55' E 007°34'1110.9
2016-Jun-22 01:33N 53°52' E 007°16'1211.7
2016-Jun-22 00:33N 53°49' E 006°57'1111.0
2016-Jun-21 23:33N 53°47' E 006°39'1111.2
2016-Jun-21 22:33N 53°42' E 006°22'9 8.8
2016-Jun-21 21:34N 53°37' E 006°34'1010.3
2016-Jun-21 20:34N 53°30' E 006°48'9 9.5
2016-Jun-21 19:34N 53°23' E 006°58'8 7.9
2016-Jun-21 18:34N 53°20' E 007°10'0 0.1
2016-Jun-21 17:33N 53°20' E 007°10'0 0.0
2016-Jun-21 16:30N 53°20' E 007°10'0 0.0
2016-Jun-21 15:33N 53°20' E 007°10'0 0.0
2016-Jun-21 14:30N 53°20' E 007°10'0 0.0
2016-Jun-21 13:33N 53°20' E 007°10'0 0.0
2016-Jun-21 12:33N 53°20' E 007°10'0 0.0
2016-Jun-21 11:21N 53°20' E 007°10'0 0.0
2016-Jun-21 10:33N 53°20' E 007°10'0 0.0
2016-Jun-21 09:30N 53°20' E 007°10'0 0.0
2016-Jun-21 08:33N 53°20' E 007°10'0 0.0
2016-Jun-21 07:27N 53°20' E 007°10'0 0.0
2016-Jun-21 05:33N 53°20' E 007°10'0 0.0
2016-Jun-21 04:33N 53°20' E 007°10'0 0.0
2016-Jun-21 03:30N 53°20' E 007°10'0 0.0
2016-Jun-21 02:33N 53°20' E 007°10'0 0.0
2016-Jun-21 01:33N 53°20' E 007°10'0 0.0
2016-Jun-21 00:33N 53°20' E 007°10'0 0.0
2016-Jun-20 23:30N 53°20' E 007°10'0 0.0
2016-Jun-20 22:33N 53°20' E 007°10'0 0.0
2016-Jun-20 21:33N 53°20' E 007°10'0 0.0
2016-Jun-20 20:33N 53°20' E 007°10'0 0.0
2016-Jun-20 19:33N 53°20' E 007°10'0 0.0
2016-Jun-20 18:30N 53°20' E 007°10'0 0.0
2016-Jun-20 17:33N 53°20' E 007°10'0 0.0
2016-Jun-20 16:33N 53°20' E 007°10'0 0.0
2016-Jun-20 15:30N 53°20' E 007°10'0 0.0
2016-Jun-20 14:33N 53°20' E 007°10'0 0.0
2016-Jun-20 13:33N 53°20' E 007°10'0 0.0
2016-Jun-20 12:33N 53°20' E 007°10'0 0.0
2016-Jun-20 11:33N 53°20' E 007°10'0 0.0
2016-Jun-20 10:30N 53°20' E 007°10'0 0.0
2016-Jun-20 09:30N 53°20' E 007°10'0 0.0
2016-Jun-20 08:33N 53°20' E 007°10'0 0.0
2016-Jun-20 07:30N 53°20' E 007°10'0 0.0
2016-Jun-20 06:24N 53°20' E 007°10'0 0.0
2016-Jun-20 05:33N 53°20' E 007°10'0 0.0
2016-Jun-20 04:33N 53°20' E 007°10'0 0.0
2016-Jun-20 03:33N 53°20' E 007°10'0 0.0
2016-Jun-20 02:30N 53°20' E 007°10'0 0.0
2016-Jun-20 01:33N 53°20' E 007°10'0 0.0
2016-Jun-20 00:33N 53°20' E 007°10'0 0.0
2016-Jun-19 23:33N 53°20' E 007°10'0 0.0
2016-Jun-19 22:30N 53°20' E 007°10'0 0.0
2016-Jun-19 21:33N 53°20' E 007°10'0 0.0
2016-Jun-19 20:33N 53°20' E 007°10'0 0.0
2016-Jun-19 19:33N 53°20' E 007°10'0 0.0
2016-Jun-19 18:33N 53°20' E 007°10'0 0.0
2016-Jun-19 17:33N 53°20' E 007°10'0 0.0
2016-Jun-19 16:33N 53°20' E 007°10'0 0.0
2016-Jun-19 15:33N 53°20' E 007°10'0 0.0
2016-Jun-19 14:33N 53°20' E 007°10'0 0.0
2016-Jun-19 13:33N 53°20' E 007°10'0 0.0
2016-Jun-19 12:33N 53°20' E 007°10'0 0.0
2016-Jun-19 11:33N 53°20' E 007°10'0 0.0
2016-Jun-19 10:33N 53°20' E 007°10'0 0.0
2016-Jun-19 09:33N 53°20' E 007°10'0 0.0
2016-Jun-19 08:33N 53°20' E 007°10'0 0.0
2016-Jun-19 07:33N 53°20' E 007°10'1 0.8
2016-Jun-19 06:33N 53°20' E 007°09'9 9.5
2016-Jun-19 05:33N 53°25' E 006°56'1312.8
2016-Jun-19 04:34N 53°34' E 006°40'1010.5
2016-Jun-19 03:34N 53°37' E 006°23'4 4.5
2016-Jun-19 02:33N 53°41' E 006°19'8 7.5
2016-Jun-19 01:33N 53°48' E 006°21'8 8.4
2016-Jun-19 00:33N 53°51' E 006°34'9 8.8
2016-Jun-18 23:33N 53°53' E 006°49'9 8.9
2016-Jun-18 22:33N 53°55' E 007°03'9 8.8
2016-Jun-18 21:33N 53°57' E 007°18'8 7.9
2016-Jun-18 20:33N 54°00' E 007°30'7 6.6
2016-Jun-18 19:34N 54°01' E 007°41'7 6.7
2016-Jun-18 18:33N 54°01' E 007°53'7 7.5
2016-Jun-18 17:34N 54°01' E 008°05'9 9.0
2016-Jun-18 16:34N 53°60' E 008°20'1312.2
2016-Jun-18 15:30N 53°55' E 008°41'1111.8
2016-Jun-18 14:33N 53°51' E 008°58'7 6.6
2016-Jun-18 13:34N 53°54' E 009°09'3 2.7
2016-Jun-18 12:33N 53°56' E 009°12'7 6.7
2016-Jun-18 11:33N 54°01' E 009°18'28 7.1
2016-Jun-18 07:33N 54°22' E 009°52'7 7.0
2016-Jun-18 06:33N 54°22' E 010°04'3 2.9
2016-Jun-18 05:33N 54°22' E 010°08'1 0.5
2016-Jun-18 04:33N 54°22' E 010°09'6 6.0
2016-Jun-18 03:33N 54°27' E 010°14'10 9.5
2016-Jun-18 02:33N 54°33' E 010°28'1010.1
2016-Jun-18 01:33N 54°35' E 010°45'10 9.9
2016-Jun-18 00:33N 54°36' E 011°02'9 9.4
2016-Jun-17 23:33N 54°34' E 011°18'10 9.6
2016-Jun-17 22:33N 54°30' E 011°33'10 9.8
2016-Jun-17 21:33N 54°27' E 011°49'10 9.6
2016-Jun-17 20:33N 54°27' E 012°05'8 7.8
2016-Jun-17 19:33N 54°33' E 012°13'47 9.3
2016-Jun-17 14:29N 54°57' E 013°24'9 9.5
2016-Jun-17 13:32N 54°59' E 013°39'1010.1
2016-Jun-17 12:33N 55°03' E 013°55'9 9.5
2016-Jun-17 11:33N 55°08' E 014°08'1010.1
2016-Jun-17 10:33N 55°16' E 014°20'1010.3
2016-Jun-17 09:33N 55°24' E 014°31'10 9.7
2016-Jun-17 08:33N 55°30' E 014°45'9 9.4
2016-Jun-17 07:33N 55°35' E 014°59'9 9.4
2016-Jun-17 06:33N 55°39' E 015°14'11 9.6
2016-Jun-17 05:28N 55°44' E 015°30'  
Track history (hours):
 
Tides and Currents Weather Stations Pressure Air Temp Water Temp Dewpoint Dewpoint Depression Visibility Wind Speed Wind Dir Waves Ship Positions

Norrland

Last reported at 2016-Jun-23 14:25 UTC. Time now 2016-Jun-30 10:37 UTC.
Position N 55°47' E 015°54'.

Length 118 m; draft 4.2 m.

Type: Cargo ship. MMSI: 212521000.

Date/timePositionNaut miles runAvg speedWind from/ knotsBaromVisibWave heightAir tempDewpointWater temp
2016-Jun-23 14:25N 55°47' E 015°54'1011.4
2016-Jun-23 13:33N 55°42' E 015°39'1211.6
2016-Jun-23 12:33N 55°37' E 015°21'1211.8
2016-Jun-23 11:33N 55°31' E 015°03'1211.7
2016-Jun-23 10:33N 55°25' E 014°45'1111.5
2016-Jun-23 09:33N 55°17' E 014°31'1211.5
2016-Jun-23 08:33N 55°08' E 014°18'1111.3
2016-Jun-23 07:33N 55°01' E 014°03'2311.5
2016-Jun-23 05:33N 54°53' E 013°25'1211.8
2016-Jun-23 04:33N 54°49' E 013°06'1211.6
2016-Jun-23 03:33N 54°45' E 012°47'1212.0
2016-Jun-23 02:33N 54°39' E 012°29'1211.8
2016-Jun-23 01:33N 54°30' E 012°16'1010.5
2016-Jun-23 00:33N 54°24' E 012°01'1211.8
2016-Jun-22 23:33N 54°26' E 011°41'1211.8
2016-Jun-22 22:33N 54°31' E 011°23'1111.3
2016-Jun-22 21:33N 54°35' E 011°05'1212.1
2016-Jun-22 20:33N 54°34' E 010°44'1212.0
2016-Jun-22 19:33N 54°31' E 010°24'1010.3
2016-Jun-22 18:34N 54°23' E 010°12'2 2.5
2016-Jun-22 17:33N 54°22' E 010°08'6 5.6
2016-Jun-22 16:33N 54°21' E 009°59'6 6.1
2016-Jun-22 15:33N 54°22' E 009°49'7 6.8
2016-Jun-22 14:33N 54°17' E 009°40'4 4.1
2016-Jun-22 13:33N 54°14' E 009°36'14 6.7
2016-Jun-22 11:26N 54°04' E 009°19'7 8.0
2016-Jun-22 10:33N 53°57' E 009°15'5 5.2
2016-Jun-22 09:33N 53°54' E 009°09'4 4.1
2016-Jun-22 08:33N 53°52' E 009°02'8 8.1
2016-Jun-22 07:33N 53°50' E 008°49'7 7.4
2016-Jun-22 06:33N 53°55' E 008°40'8 8.2
2016-Jun-22 05:34N 53°59' E 008°27'10 9.8
2016-Jun-22 04:32N 53°60' E 008°10'1110.9
2016-Jun-22 03:33N 53°57' E 007°53'1111.0
2016-Jun-22 02:33N 53°55' E 007°34'1110.9
2016-Jun-22 01:33N 53°52' E 007°16'1211.7
2016-Jun-22 00:33N 53°49' E 006°57'1111.0
2016-Jun-21 23:33N 53°47' E 006°39'1111.2
2016-Jun-21 22:33N 53°42' E 006°22'9 8.8
2016-Jun-21 21:34N 53°37' E 006°34'1010.3
2016-Jun-21 20:34N 53°30' E 006°48'9 9.5
2016-Jun-21 19:34N 53°23' E 006°58'8 7.9
2016-Jun-21 18:34N 53°20' E 007°10'0 0.1
2016-Jun-21 17:33N 53°20' E 007°10'0 0.0
2016-Jun-21 16:30N 53°20' E 007°10'0 0.0
2016-Jun-21 15:33N 53°20' E 007°10'0 0.0
2016-Jun-21 14:30N 53°20' E 007°10'0 0.0
2016-Jun-21 13:33N 53°20' E 007°10'0 0.0
2016-Jun-21 12:33N 53°20' E 007°10'0 0.0
2016-Jun-21 11:21N 53°20' E 007°10'0 0.0
2016-Jun-21 10:33N 53°20' E 007°10'0 0.0
2016-Jun-21 09:30N 53°20' E 007°10'0 0.0
2016-Jun-21 08:33N 53°20' E 007°10'0 0.0
2016-Jun-21 07:27N 53°20' E 007°10'0 0.0
2016-Jun-21 05:33N 53°20' E 007°10'0 0.0
2016-Jun-21 04:33N 53°20' E 007°10'0 0.0
2016-Jun-21 03:30N 53°20' E 007°10'0 0.0
2016-Jun-21 02:33N 53°20' E 007°10'0 0.0
2016-Jun-21 01:33N 53°20' E 007°10'0 0.0
2016-Jun-21 00:33N 53°20' E 007°10'0 0.0
2016-Jun-20 23:30N 53°20' E 007°10'0 0.0
2016-Jun-20 22:33N 53°20' E 007°10'0 0.0
2016-Jun-20 21:33N 53°20' E 007°10'0 0.0
2016-Jun-20 20:33N 53°20' E 007°10'0 0.0
2016-Jun-20 19:33N 53°20' E 007°10'0 0.0
2016-Jun-20 18:30N 53°20' E 007°10'0 0.0
2016-Jun-20 17:33N 53°20' E 007°10'0 0.0
2016-Jun-20 16:33N 53°20' E 007°10'0 0.0
2016-Jun-20 15:30N 53°20' E 007°10'0 0.0
2016-Jun-20 14:33N 53°20' E 007°10'0 0.0
2016-Jun-20 13:33N 53°20' E 007°10'0 0.0
2016-Jun-20 12:33N 53°20' E 007°10'0 0.0
2016-Jun-20 11:33N 53°20' E 007°10'0 0.0
2016-Jun-20 10:30N 53°20' E 007°10'0 0.0
2016-Jun-20 09:30N 53°20' E 007°10'0 0.0
2016-Jun-20 08:33N 53°20' E 007°10'0 0.0
2016-Jun-20 07:30N 53°20' E 007°10'0 0.0
2016-Jun-20 06:24N 53°20' E 007°10'0 0.0
2016-Jun-20 05:33N 53°20' E 007°10'0 0.0
2016-Jun-20 04:33N 53°20' E 007°10'0 0.0
2016-Jun-20 03:33N 53°20' E 007°10'0 0.0
2016-Jun-20 02:30N 53°20' E 007°10'0 0.0
2016-Jun-20 01:33N 53°20' E 007°10'0 0.0
2016-Jun-20 00:33N 53°20' E 007°10'0 0.0
2016-Jun-19 23:33N 53°20' E 007°10'0 0.0
2016-Jun-19 22:30N 53°20' E 007°10'0 0.0
2016-Jun-19 21:33N 53°20' E 007°10'0 0.0
2016-Jun-19 20:33N 53°20' E 007°10'0 0.0
2016-Jun-19 19:33N 53°20' E 007°10'0 0.0
2016-Jun-19 18:33N 53°20' E 007°10'0 0.0
2016-Jun-19 17:33N 53°20' E 007°10'0 0.0
2016-Jun-19 16:33N 53°20' E 007°10'0 0.0
2016-Jun-19 15:33N 53°20' E 007°10'0 0.0
2016-Jun-19 14:33N 53°20' E 007°10'0 0.0
2016-Jun-19 13:33N 53°20' E 007°10'0 0.0
2016-Jun-19 12:33N 53°20' E 007°10'0 0.0
2016-Jun-19 11:33N 53°20' E 007°10'0 0.0
2016-Jun-19 10:33N 53°20' E 007°10'0 0.0
2016-Jun-19 09:33N 53°20' E 007°10'0 0.0
2016-Jun-19 08:33N 53°20' E 007°10'0 0.0
2016-Jun-19 07:33N 53°20' E 007°10'1 0.8
2016-Jun-19 06:33N 53°20' E 007°09'9 9.5
2016-Jun-19 05:33N 53°25' E 006°56'1312.8
2016-Jun-19 04:34N 53°34' E 006°40'1010.5
2016-Jun-19 03:34N 53°37' E 006°23'4 4.5
2016-Jun-19 02:33N 53°41' E 006°19'8 7.5
2016-Jun-19 01:33N 53°48' E 006°21'8 8.4
2016-Jun-19 00:33N 53°51' E 006°34'9 8.8
2016-Jun-18 23:33N 53°53' E 006°49'9 8.9
2016-Jun-18 22:33N 53°55' E 007°03'9 8.8
2016-Jun-18 21:33N 53°57' E 007°18'8 7.9
2016-Jun-18 20:33N 54°00' E 007°30'7 6.6
2016-Jun-18 19:34N 54°01' E 007°41'7 6.7
2016-Jun-18 18:33N 54°01' E 007°53'7 7.5
2016-Jun-18 17:34N 54°01' E 008°05'9 9.0
2016-Jun-18 16:34N 53°60' E 008°20'1312.2
2016-Jun-18 15:30N 53°55' E 008°41'1111.8
2016-Jun-18 14:33N 53°51' E 008°58'7 6.6
2016-Jun-18 13:34N 53°54' E 009°09'3 2.7
2016-Jun-18 12:33N 53°56' E 009°12'7 6.7
2016-Jun-18 11:33N 54°01' E 009°18'28 7.1
2016-Jun-18 07:33N 54°22' E 009°52'7 7.0
2016-Jun-18 06:33N 54°22' E 010°04'3 2.9
2016-Jun-18 05:33N 54°22' E 010°08'1 0.5
2016-Jun-18 04:33N 54°22' E 010°09'6 6.0
2016-Jun-18 03:33N 54°27' E 010°14'10 9.5
2016-Jun-18 02:33N 54°33' E 010°28'1010.1
2016-Jun-18 01:33N 54°35' E 010°45'10 9.9
2016-Jun-18 00:33N 54°36' E 011°02'9 9.4
2016-Jun-17 23:33N 54°34' E 011°18'10 9.6
2016-Jun-17 22:33N 54°30' E 011°33'10 9.8
2016-Jun-17 21:33N 54°27' E 011°49'10 9.6
2016-Jun-17 20:33N 54°27' E 012°05'8 7.8
2016-Jun-17 19:33N 54°33' E 012°13'47 9.3
2016-Jun-17 14:29N 54°57' E 013°24'9 9.5
2016-Jun-17 13:32N 54°59' E 013°39'1010.1
2016-Jun-17 12:33N 55°03' E 013°55'9 9.5
2016-Jun-17 11:33N 55°08' E 014°08'1010.1
2016-Jun-17 10:33N 55°16' E 014°20'1010.3
2016-Jun-17 09:33N 55°24' E 014°31'10 9.7
2016-Jun-17 08:33N 55°30' E 014°45'9 9.4
2016-Jun-17 07:33N 55°35' E 014°59'9 9.4
2016-Jun-17 06:33N 55°39' E 015°14'11 9.6
2016-Jun-17 05:28N 55°44' E 015°30'  

Dump ship's entire track history